createdAt,value
2018-07-13T00:00:30.940Z,20.18
2018-07-13T00:01:30.918Z,20.22
2018-07-13T00:02:30.921Z,20.19
2018-07-13T00:03:30.922Z,20.21
2018-07-13T00:04:30.925Z,20.14
2018-07-13T00:05:30.930Z,20.18
2018-07-13T00:06:30.931Z,20.22
2018-07-13T00:07:30.936Z,20.13
2018-07-13T00:08:30.936Z,20.09
2018-07-13T00:09:30.943Z,20.18
2018-07-13T00:10:30.973Z,20.22
2018-07-13T00:11:30.941Z,20.18
2018-07-13T00:12:30.946Z,20.14
2018-07-13T00:13:30.947Z,20.24
2018-07-13T00:14:30.952Z,20.10
2018-07-13T00:15:30.953Z,20.24
2018-07-13T00:16:30.960Z,20.13
2018-07-13T00:17:30.959Z,20.13
2018-07-13T00:18:30.977Z,20.09
2018-07-13T00:19:30.961Z,20.11
2018-07-13T00:20:30.967Z,20.11
2018-07-13T00:21:30.972Z,20.10
2018-07-13T00:22:30.970Z,20.16
2018-07-13T00:23:30.971Z,20.24
2018-07-13T00:24:30.975Z,20.24
2018-07-13T00:25:30.978Z,20.13
2018-07-13T00:26:30.980Z,20.19
2018-07-13T00:27:30.982Z,20.22
2018-07-13T00:28:30.984Z,20.19
2018-07-13T00:29:30.987Z,20.13
2018-07-13T00:30:30.989Z,20.18
2018-07-13T00:31:30.994Z,20.16
2018-07-13T00:32:30.996Z,20.14
2018-07-13T00:33:30.997Z,20.09
2018-07-13T00:34:31.000Z,20.06
2018-07-13T00:35:31.004Z,20.11
2018-07-13T00:36:31.009Z,20.07
2018-07-13T00:37:31.008Z,20.06
2018-07-13T00:38:31.011Z,20.04
2018-07-13T00:39:31.045Z,20.10
2018-07-13T00:40:31.017Z,20.02
2018-07-13T00:41:31.018Z,20.03
2018-07-13T00:42:31.021Z,19.99
2018-07-13T00:43:31.025Z,20.02
2018-07-13T00:44:31.028Z,19.94
2018-07-13T00:45:31.032Z,19.89
2018-07-13T00:46:31.032Z,20.04
2018-07-13T00:47:31.033Z,19.89
2018-07-13T00:48:31.033Z,19.96
2018-07-13T00:49:31.036Z,19.92
2018-07-13T00:50:31.045Z,19.89
2018-07-13T00:51:31.045Z,19.91
2018-07-13T00:52:31.043Z,19.88
2018-07-13T00:53:31.047Z,19.77
2018-07-13T00:54:31.051Z,19.94
2018-07-13T00:55:31.049Z,19.85
2018-07-13T00:56:31.055Z,19.84
2018-07-13T00:57:31.063Z,19.79
2018-07-13T00:58:31.058Z,19.73
2018-07-13T00:59:31.059Z,19.67
2018-07-13T01:00:31.062Z,19.70
2018-07-13T01:01:31.064Z,19.67
2018-07-13T01:02:31.072Z,19.70
2018-07-13T01:03:31.070Z,19.73
2018-07-13T01:04:31.072Z,19.74
2018-07-13T01:05:31.073Z,19.71
2018-07-13T01:06:31.078Z,19.70
2018-07-13T01:07:31.080Z,19.66
2018-07-13T01:08:31.080Z,19.58
2018-07-13T01:09:31.082Z,19.54
2018-07-13T01:10:31.085Z,19.56
2018-07-13T01:11:31.087Z,19.58
2018-07-13T01:12:31.089Z,19.62
2018-07-13T01:13:31.095Z,19.58
2018-07-13T01:14:31.105Z,19.58
2018-07-13T01:15:31.096Z,19.58
2018-07-13T01:16:31.097Z,19.52
2018-07-13T01:17:31.101Z,19.51
2018-07-13T01:18:31.105Z,19.45
2018-07-13T01:19:31.105Z,19.44
2018-07-13T01:20:31.107Z,19.49
2018-07-13T01:21:31.110Z,19.49
2018-07-13T01:22:31.110Z,19.48
2018-07-13T01:23:31.112Z,19.40
2018-07-13T01:24:31.113Z,19.37
2018-07-13T01:25:31.119Z,19.37
2018-07-13T01:26:31.120Z,19.33
2018-07-13T01:27:31.119Z,19.34
2018-07-13T01:28:31.121Z,19.40
2018-07-13T01:29:31.125Z,19.31
2018-07-13T01:30:31.152Z,19.40
2018-07-13T01:31:31.129Z,19.34
2018-07-13T01:32:31.130Z,19.31
2018-07-13T01:33:31.132Z,19.30
2018-07-13T01:34:31.139Z,19.27
2018-07-13T01:35:31.135Z,19.19
2018-07-13T01:36:31.144Z,19.21
2018-07-13T01:37:31.140Z,19.16
2018-07-13T01:38:31.144Z,19.15
2018-07-13T01:39:31.145Z,19.18
2018-07-13T01:40:31.146Z,19.16
2018-07-13T01:41:31.148Z,19.19
2018-07-13T01:42:31.149Z,19.04
2018-07-13T01:43:31.155Z,19.11
2018-07-13T01:44:31.153Z,19.16
2018-07-13T01:45:31.156Z,19.18
2018-07-13T01:46:31.161Z,19.12
2018-07-13T01:47:31.158Z,19.15
2018-07-13T01:48:31.162Z,19.16
2018-07-13T01:49:31.162Z,19.07
2018-07-13T01:50:31.189Z,19.11
2018-07-13T01:51:31.167Z,19.08
2018-07-13T01:52:31.169Z,19.02
2018-07-13T01:53:31.169Z,19.09
2018-07-13T01:54:31.176Z,19.08
2018-07-13T01:55:31.198Z,19.11
2018-07-13T01:56:31.175Z,19.12
2018-07-13T01:57:31.178Z,19.04
2018-07-13T01:58:31.180Z,19.09
2018-07-13T01:59:31.182Z,19.00
2018-07-13T02:00:31.186Z,18.92
2018-07-13T02:01:31.187Z,19.00
2018-07-13T02:02:31.186Z,18.95
2018-07-13T02:03:31.190Z,19.02
2018-07-13T02:04:31.190Z,19.02
2018-07-13T02:05:31.191Z,18.93
2018-07-13T02:06:31.195Z,18.96
2018-07-13T02:07:31.195Z,18.99
2018-07-13T02:08:31.201Z,18.93
2018-07-13T02:09:31.202Z,18.86
2018-07-13T02:10:31.201Z,18.83
2018-07-13T02:11:31.218Z,18.93
2018-07-13T02:12:31.204Z,18.86
2018-07-13T02:13:31.207Z,18.90
2018-07-13T02:14:31.209Z,18.90
2018-07-13T02:15:31.210Z,18.81
2018-07-13T02:16:31.211Z,18.74
2018-07-13T02:17:31.213Z,18.75
2018-07-13T02:18:31.215Z,18.83
2018-07-13T02:19:31.215Z,18.77
2018-07-13T02:20:31.217Z,18.83
2018-07-13T02:21:31.219Z,18.75
2018-07-13T02:22:31.223Z,18.70
2018-07-13T02:23:31.223Z,18.73
2018-07-13T02:24:31.225Z,18.77
2018-07-13T02:25:31.227Z,18.75
2018-07-13T02:26:31.230Z,18.70
2018-07-13T02:27:31.229Z,18.74
2018-07-13T02:28:31.233Z,18.66
2018-07-13T02:29:31.235Z,18.70
2018-07-13T02:30:31.244Z,18.66
2018-07-13T02:31:31.239Z,18.63
2018-07-13T02:32:31.241Z,18.71
2018-07-13T02:33:31.243Z,18.59
2018-07-13T02:34:31.241Z,18.53
2018-07-13T02:35:31.246Z,18.59
2018-07-13T02:36:31.244Z,18.56
2018-07-13T02:37:31.246Z,18.44
2018-07-13T02:38:31.247Z,18.43
2018-07-13T02:39:31.250Z,18.40
2018-07-13T02:40:31.252Z,18.41
2018-07-13T02:41:31.254Z,18.38
2018-07-13T02:42:31.257Z,18.37
2018-07-13T02:43:31.255Z,18.40
2018-07-13T02:44:31.256Z,18.31
2018-07-13T02:45:31.260Z,18.26
2018-07-13T02:46:31.263Z,18.28
2018-07-13T02:47:31.262Z,18.28
2018-07-13T02:48:31.263Z,18.34
2018-07-13T02:49:32.182Z,18.26
2018-07-13T02:50:31.375Z,18.31
2018-07-13T02:51:31.374Z,18.23
2018-07-13T02:52:31.497Z,18.22
2018-07-13T02:53:32.189Z,18.18
2018-07-13T02:54:32.140Z,18.15
2018-07-13T02:55:31.481Z,18.28
2018-07-13T02:56:32.177Z,18.19
2018-07-13T02:57:32.174Z,18.11
2018-07-13T02:58:31.513Z,18.11
2018-07-13T02:59:32.185Z,18.16
2018-07-13T03:00:32.186Z,18.22
2018-07-13T03:01:32.199Z,18.11
2018-07-13T03:02:31.345Z,18.20
2018-07-13T03:03:32.149Z,18.13
2018-07-13T03:04:31.286Z,18.15
2018-07-13T03:05:31.289Z,18.15
2018-07-13T03:06:31.286Z,18.11
2018-07-13T03:07:31.287Z,18.15
2018-07-13T03:08:31.292Z,18.11
2018-07-13T03:09:31.292Z,18.07
2018-07-13T03:10:31.292Z,18.10
2018-07-13T03:11:31.292Z,18.07
2018-07-13T03:12:31.294Z,18.07
2018-07-13T03:13:31.295Z,18.10
2018-07-13T03:14:31.298Z,18.00
2018-07-13T03:15:31.298Z,17.97
2018-07-13T03:16:31.302Z,18.07
2018-07-13T03:17:31.301Z,17.98
2018-07-13T03:18:38.207Z,18.03
2018-07-13T03:19:31.303Z,18.01
2018-07-13T03:20:31.307Z,18.05
2018-07-13T03:21:31.305Z,18.00
2018-07-13T03:22:31.307Z,18.00
2018-07-13T03:23:31.312Z,18.01
2018-07-13T03:24:31.308Z,18.03
2018-07-13T03:25:31.313Z,18.00
2018-07-13T03:26:31.311Z,17.90
2018-07-13T03:27:31.316Z,18.03
2018-07-13T03:28:31.314Z,17.98
2018-07-13T03:29:31.316Z,17.97
2018-07-13T03:30:31.315Z,17.94
2018-07-13T03:31:31.316Z,17.94
2018-07-13T03:32:31.317Z,17.97
2018-07-13T03:33:31.319Z,17.94
2018-07-13T03:34:31.321Z,17.98
2018-07-13T03:35:31.320Z,18.01
2018-07-13T03:36:31.340Z,17.97
2018-07-13T03:37:31.322Z,17.94
2018-07-13T03:38:31.324Z,17.95
2018-07-13T03:39:31.327Z,17.92
2018-07-13T03:40:31.328Z,17.98
2018-07-13T03:41:31.331Z,18.03
2018-07-13T03:42:31.328Z,17.98
2018-07-13T03:43:31.330Z,17.90
2018-07-13T03:44:31.330Z,17.94
2018-07-13T03:45:31.331Z,17.98
2018-07-13T03:46:31.333Z,17.95
2018-07-13T03:47:31.366Z,18.00
2018-07-13T03:48:31.334Z,17.98
2018-07-13T03:49:31.337Z,17.95
2018-07-13T03:50:31.337Z,17.92
2018-07-13T03:51:31.341Z,17.97
2018-07-13T03:52:31.341Z,18.00
2018-07-13T03:53:31.340Z,17.98
2018-07-13T03:54:31.343Z,18.01
2018-07-13T03:55:31.342Z,17.97
2018-07-13T03:56:31.345Z,17.97
2018-07-13T03:57:31.345Z,17.98
2018-07-13T03:58:31.351Z,18.00
2018-07-13T03:59:31.348Z,17.97
2018-07-13T04:00:31.373Z,18.03
2018-07-13T04:01:31.349Z,18.03
2018-07-13T04:02:31.350Z,18.00
2018-07-13T04:03:31.351Z,17.98
2018-07-13T04:04:31.351Z,18.00
2018-07-13T04:05:31.354Z,18.00
2018-07-13T04:06:31.419Z,17.98
2018-07-13T04:07:31.355Z,18.00
2018-07-13T04:08:31.357Z,17.98
2018-07-13T04:09:31.358Z,18.03
2018-07-13T04:10:31.361Z,17.98
2018-07-13T04:11:31.360Z,18.04
2018-07-13T04:12:31.378Z,17.95
2018-07-13T04:13:31.361Z,18.03
2018-07-13T04:14:31.368Z,18.11
2018-07-13T04:15:31.369Z,18.07
2018-07-13T04:16:31.364Z,18.16
2018-07-13T04:17:31.371Z,18.08
2018-07-13T04:18:31.368Z,18.07
2018-07-13T04:19:31.369Z,18.08
2018-07-13T04:20:31.369Z,18.08
2018-07-13T04:21:31.371Z,18.11
2018-07-13T04:22:31.373Z,18.07
2018-07-13T04:23:31.372Z,18.15
2018-07-13T04:24:31.373Z,18.11
2018-07-13T04:25:31.377Z,18.23
2018-07-13T04:26:31.376Z,18.28
2018-07-13T04:27:31.379Z,18.33
2018-07-13T04:28:31.378Z,18.28
2018-07-13T04:29:31.380Z,18.29
2018-07-13T04:30:31.380Z,18.25
2018-07-13T04:31:31.388Z,18.33
2018-07-13T04:32:31.391Z,18.34
2018-07-13T04:33:31.386Z,18.38
2018-07-13T04:34:31.388Z,18.38
2018-07-13T04:35:31.388Z,18.45
2018-07-13T04:36:31.387Z,18.49
2018-07-13T04:37:31.390Z,18.55
2018-07-13T04:38:31.391Z,18.55
2018-07-13T04:39:31.391Z,18.58
2018-07-13T04:40:31.392Z,18.65
2018-07-13T04:41:32.222Z,18.66
2018-07-13T04:42:31.395Z,18.81
2018-07-13T04:43:31.399Z,18.77
2018-07-13T04:44:31.398Z,18.86
2018-07-13T04:45:31.405Z,18.86
2018-07-13T04:46:31.401Z,18.90
2018-07-13T04:47:31.404Z,18.98
2018-07-13T04:48:31.403Z,18.92
2018-07-13T04:49:31.408Z,19.14
2018-07-13T04:50:31.406Z,19.15
2018-07-13T04:51:31.417Z,19.11
2018-07-13T04:52:31.410Z,19.12
2018-07-13T04:53:31.411Z,19.27
2018-07-13T04:54:31.414Z,19.36
2018-07-13T04:55:31.416Z,19.40
2018-07-13T04:56:31.417Z,19.39
2018-07-13T04:57:31.421Z,19.48
2018-07-13T04:58:31.477Z,19.51
2018-07-13T04:59:31.422Z,19.54
2018-07-13T05:00:31.437Z,19.66
2018-07-13T05:01:31.426Z,19.74
2018-07-13T05:02:31.429Z,19.74
2018-07-13T05:03:31.429Z,19.77
2018-07-13T05:04:31.432Z,19.88
2018-07-13T05:05:31.434Z,19.99
2018-07-13T05:06:31.437Z,19.96
2018-07-13T05:07:31.443Z,19.96
2018-07-13T05:08:31.440Z,20.00
2018-07-13T05:09:31.445Z,20.02
2018-07-13T05:10:31.449Z,20.03
2018-07-13T05:11:31.447Z,20.06
2018-07-13T05:12:31.455Z,19.96
2018-07-13T05:13:31.456Z,20.03
2018-07-13T05:14:31.455Z,19.95
2018-07-13T05:15:31.488Z,19.99
2018-07-13T05:16:31.457Z,20.06
2018-07-13T05:17:31.460Z,20.06
2018-07-13T05:18:31.463Z,20.04
2018-07-13T05:19:31.464Z,20.14
2018-07-13T05:20:31.467Z,20.06
2018-07-13T05:21:31.472Z,20.06
2018-07-13T05:22:31.471Z,20.11
2018-07-13T05:23:31.474Z,20.13
2018-07-13T05:24:31.476Z,20.09
2018-07-13T05:25:31.482Z,20.06
2018-07-13T05:26:31.481Z,20.07
2018-07-13T05:27:31.491Z,19.99
2018-07-13T05:28:31.486Z,20.04
2018-07-13T05:29:31.489Z,20.02
2018-07-13T05:30:31.492Z,19.99
2018-07-13T05:31:31.627Z,19.99
2018-07-13T05:32:31.495Z,19.94
2018-07-13T05:33:31.502Z,19.86
2018-07-13T05:34:31.528Z,19.92
2018-07-13T05:35:31.508Z,19.88
2018-07-13T05:36:31.505Z,19.85
2018-07-13T05:37:31.512Z,19.89
2018-07-13T05:38:31.513Z,19.92
2018-07-13T05:39:31.515Z,19.91
2018-07-13T05:40:31.514Z,19.96
2018-07-13T05:41:31.517Z,19.95
2018-07-13T05:42:31.519Z,19.95
2018-07-13T05:43:31.522Z,20.00
2018-07-13T05:44:31.525Z,19.95
2018-07-13T05:45:31.525Z,20.03
2018-07-13T05:46:31.528Z,20.04
2018-07-13T05:47:31.531Z,20.02
2018-07-13T05:48:31.534Z,20.00
2018-07-13T05:49:31.561Z,20.10
2018-07-13T05:50:31.538Z,20.06
2018-07-13T05:51:31.539Z,20.09
2018-07-13T05:52:31.542Z,20.06
2018-07-13T05:53:31.561Z,20.13
2018-07-13T05:54:31.548Z,20.09
2018-07-13T05:55:31.550Z,20.14
2018-07-13T05:56:31.560Z,20.18
2018-07-13T05:57:31.564Z,20.24
2018-07-13T05:58:31.555Z,20.22
2018-07-13T05:59:31.558Z,20.19
2018-07-13T06:00:31.561Z,20.25
2018-07-13T06:01:31.563Z,20.37
2018-07-13T06:02:31.568Z,20.29
2018-07-13T06:03:31.569Z,20.32
2018-07-13T06:04:31.570Z,20.43
2018-07-13T06:05:31.575Z,20.44
2018-07-13T06:06:31.578Z,20.50
2018-07-13T06:07:31.579Z,20.47
2018-07-13T06:08:31.585Z,20.41
2018-07-13T06:09:31.583Z,20.55
2018-07-13T06:10:31.586Z,20.47
2018-07-13T06:11:31.630Z,20.51
2018-07-13T06:12:31.596Z,20.65
2018-07-13T06:13:31.593Z,20.56
2018-07-13T06:14:31.596Z,20.60
2018-07-13T06:15:31.600Z,20.60
2018-07-13T06:16:31.602Z,20.65
2018-07-13T06:17:31.634Z,20.78
2018-07-13T06:18:31.611Z,20.74
2018-07-13T06:19:31.609Z,20.80
2018-07-13T06:20:31.612Z,20.75
2018-07-13T06:21:31.617Z,20.84
2018-07-13T06:22:31.620Z,20.95
2018-07-13T06:23:31.622Z,20.97
2018-07-13T06:24:31.692Z,20.97
2018-07-13T06:25:32.032Z,20.88
2018-07-13T06:26:31.629Z,21.02
2018-07-13T06:27:31.630Z,20.97
2018-07-13T06:28:31.636Z,21.06
2018-07-13T06:29:31.640Z,21.07
2018-07-13T06:30:31.641Z,21.02
2018-07-13T06:31:31.681Z,21.12
2018-07-13T06:32:31.648Z,21.21
2018-07-13T06:33:31.649Z,21.14
2018-07-13T06:34:31.651Z,21.12
2018-07-13T06:35:31.652Z,21.22
2018-07-13T06:36:31.659Z,21.24
2018-07-13T06:37:31.709Z,21.21
2018-07-13T06:38:31.667Z,21.27
2018-07-13T06:39:31.704Z,21.29
2018-07-13T06:40:31.703Z,21.37
2018-07-13T06:41:31.696Z,21.36
2018-07-13T06:42:31.771Z,21.35
2018-07-13T06:43:31.733Z,21.33
2018-07-13T06:44:31.680Z,21.36
2018-07-13T06:45:31.712Z,21.37
2018-07-13T06:46:31.703Z,21.36
2018-07-13T06:47:31.708Z,21.46
2018-07-13T06:48:31.695Z,21.51
2018-07-13T06:49:31.724Z,21.64
2018-07-13T06:50:31.778Z,21.66
2018-07-13T06:51:31.778Z,21.79
2018-07-13T06:52:31.745Z,21.80
2018-07-13T06:53:31.733Z,21.92
2018-07-13T06:54:31.721Z,22.00
2018-07-13T06:55:31.740Z,22.17
2018-07-13T06:56:31.715Z,22.17
2018-07-13T06:57:31.719Z,22.22
2018-07-13T06:58:31.724Z,22.29
2018-07-13T06:59:31.725Z,22.30
2018-07-13T07:00:31.738Z,22.35
2018-07-13T07:01:31.732Z,22.32
2018-07-13T07:02:31.736Z,22.29
2018-07-13T07:03:31.788Z,22.30
2018-07-13T07:04:31.747Z,22.39
2018-07-13T07:05:31.748Z,22.33
2018-07-13T07:06:31.753Z,22.35
2018-07-13T07:07:31.806Z,22.44
2018-07-13T07:08:31.779Z,22.50
2018-07-13T07:09:31.761Z,22.55
2018-07-13T07:10:31.766Z,22.57
2018-07-13T07:11:31.768Z,22.66
2018-07-13T07:12:33.199Z,22.69
2018-07-13T07:13:32.456Z,22.62
2018-07-13T07:14:31.787Z,22.73
2018-07-13T07:15:31.783Z,22.70
2018-07-13T07:16:31.786Z,22.78
2018-07-13T07:17:31.902Z,22.75
2018-07-13T07:18:31.796Z,22.96
2018-07-13T07:19:31.797Z,22.85
2018-07-13T07:20:31.823Z,22.94
2018-07-13T07:21:31.804Z,22.98
2018-07-13T07:22:31.808Z,22.96
2018-07-13T07:23:31.811Z,23.00
2018-07-13T07:24:31.895Z,22.96
2018-07-13T07:25:31.820Z,22.93
2018-07-13T07:26:31.823Z,22.90
2018-07-13T07:27:31.829Z,22.90
2018-07-13T07:28:31.840Z,22.83
2018-07-13T07:29:31.835Z,22.75
2018-07-13T07:30:31.892Z,22.76
2018-07-13T07:31:31.842Z,22.78
2018-07-13T07:32:31.847Z,22.73
2018-07-13T07:33:32.779Z,22.75
2018-07-13T07:34:31.856Z,22.72
2018-07-13T07:35:31.856Z,22.75
2018-07-13T07:36:31.863Z,22.76
2018-07-13T07:37:31.866Z,22.80
2018-07-13T07:38:31.876Z,22.70
2018-07-13T07:39:31.871Z,22.76
2018-07-13T07:40:31.876Z,22.76
2018-07-13T07:41:31.878Z,22.72
2018-07-13T07:42:31.888Z,22.72
2018-07-13T07:43:31.886Z,22.76
2018-07-13T07:44:31.892Z,22.73
2018-07-13T07:45:31.950Z,22.72
2018-07-13T07:46:31.898Z,22.75
2018-07-13T07:47:31.918Z,22.63
2018-07-13T07:48:31.904Z,22.76
2018-07-13T07:49:31.908Z,22.72
2018-07-13T07:50:31.913Z,22.76
2018-07-13T07:51:31.916Z,22.76
2018-07-13T07:52:31.927Z,22.76
2018-07-13T07:53:31.926Z,22.73
2018-07-13T07:54:31.928Z,22.65
2018-07-13T07:55:31.931Z,22.80
2018-07-13T07:56:32.267Z,22.75
2018-07-13T07:57:32.015Z,22.76
2018-07-13T07:58:31.943Z,22.76
2018-07-13T07:59:31.945Z,22.73
2018-07-13T08:00:31.950Z,22.85
2018-07-13T08:01:31.954Z,22.90
2018-07-13T08:02:31.959Z,22.90
2018-07-13T08:03:31.975Z,22.94
2018-07-13T08:04:31.974Z,22.99
2018-07-13T08:05:31.968Z,23.00
2018-07-13T08:06:32.092Z,23.02
2018-07-13T08:07:32.048Z,23.17
2018-07-13T08:08:31.981Z,23.20
2018-07-13T08:09:31.983Z,23.18
2018-07-13T08:10:32.000Z,23.28
2018-07-13T08:11:31.990Z,23.25
2018-07-13T08:12:31.994Z,23.31
2018-07-13T08:13:32.054Z,23.28
2018-07-13T08:14:32.045Z,23.27
2018-07-13T08:15:32.004Z,23.39
2018-07-13T08:16:32.008Z,23.39
2018-07-13T08:17:32.012Z,23.44
2018-07-13T08:18:32.016Z,23.43
2018-07-13T08:19:32.334Z,23.46
2018-07-13T08:20:32.024Z,23.48
2018-07-13T08:21:32.029Z,23.50
2018-07-13T08:22:32.031Z,23.51
2018-07-13T08:23:32.037Z,23.55
2018-07-13T08:24:32.044Z,23.66
2018-07-13T08:25:32.077Z,23.73
2018-07-13T08:26:32.070Z,23.81
2018-07-13T08:27:32.055Z,23.87
2018-07-13T08:28:32.054Z,23.88
2018-07-13T08:29:32.105Z,23.86
2018-07-13T08:30:32.062Z,23.91
2018-07-13T08:31:32.064Z,23.88
2018-07-13T08:32:33.136Z,24.02
2018-07-13T08:33:32.716Z,23.95
2018-07-13T08:34:32.076Z,23.96
2018-07-13T08:35:32.084Z,24.02
2018-07-13T08:36:32.084Z,24.05
2018-07-13T08:37:32.088Z,24.06
2018-07-13T08:38:32.102Z,24.18
2018-07-13T08:39:32.096Z,24.23
2018-07-13T08:40:32.104Z,24.33
2018-07-13T08:41:32.107Z,24.89
2018-07-13T08:42:32.128Z,25.95
2018-07-13T08:43:32.113Z,26.92
2018-07-13T08:44:32.129Z,27.74
2018-07-13T08:45:32.124Z,28.74
2018-07-13T08:46:32.424Z,29.47
2018-07-13T08:47:32.130Z,30.28
2018-07-13T08:48:32.138Z,30.85
2018-07-13T08:49:32.287Z,31.33
2018-07-13T08:50:32.149Z,31.69
2018-07-13T08:51:32.188Z,31.87
2018-07-13T08:52:32.159Z,32.30
2018-07-13T08:53:32.166Z,32.49
2018-07-13T08:54:32.172Z,32.83
2018-07-13T08:55:32.177Z,33.15
2018-07-13T08:56:32.186Z,33.46
2018-07-13T08:57:32.196Z,33.73
2018-07-13T08:58:32.200Z,33.87
2018-07-13T08:59:32.210Z,33.86
2018-07-13T09:00:32.214Z,34.03
2018-07-13T09:01:32.280Z,34.21
2018-07-13T09:02:32.229Z,34.54
2018-07-13T09:03:32.245Z,34.97
2018-07-13T09:04:32.307Z,35.27
2018-07-13T09:05:32.254Z,35.58
2018-07-13T09:06:32.285Z,35.82
2018-07-13T09:07:32.286Z,36.05
2018-07-13T09:08:32.282Z,36.17
2018-07-13T09:09:32.289Z,36.14
2018-07-13T09:10:32.303Z,36.36
2018-07-13T09:11:32.311Z,36.45
2018-07-13T09:12:32.323Z,36.64
2018-07-13T09:13:32.325Z,36.74
2018-07-13T09:14:32.336Z,36.47
2018-07-13T09:15:32.346Z,36.59
2018-07-13T09:16:32.355Z,36.21
2018-07-13T09:17:32.363Z,35.92
2018-07-13T09:18:32.374Z,36.01
2018-07-13T09:19:32.383Z,36.23
2018-07-13T09:20:32.398Z,36.33
2018-07-13T09:21:32.407Z,36.49
2018-07-13T09:22:32.413Z,36.67
2018-07-13T09:23:32.430Z,36.88
2018-07-13T09:24:32.435Z,37.30
2018-07-13T09:25:32.445Z,37.55
2018-07-13T09:26:32.457Z,37.68
2018-07-13T09:27:32.467Z,38.11
2018-07-13T09:28:32.476Z,38.48
2018-07-13T09:29:32.506Z,38.67
2018-07-13T09:30:32.498Z,38.84
2018-07-13T09:31:32.509Z,39.06
2018-07-13T09:32:32.522Z,39.25
2018-07-13T09:33:32.531Z,39.51
2018-07-13T09:34:32.544Z,39.53
2018-07-13T09:35:32.563Z,39.83
2018-07-13T09:36:32.570Z,39.36
2018-07-13T09:37:32.581Z,39.37
2018-07-13T09:38:32.595Z,39.44
2018-07-13T09:39:32.603Z,39.80
2018-07-13T09:40:32.619Z,39.87
2018-07-13T09:41:32.636Z,39.78
2018-07-13T09:42:32.642Z,40.05
2018-07-13T09:43:32.693Z,39.93
2018-07-13T09:44:32.668Z,39.72
2018-07-13T09:45:32.817Z,39.75
2018-07-13T09:46:33.096Z,40.02
2018-07-13T09:47:32.710Z,40.18
2018-07-13T09:48:32.720Z,40.61
2018-07-13T09:49:32.735Z,40.84
2018-07-13T09:50:32.744Z,40.90
2018-07-13T09:51:32.758Z,41.06
2018-07-13T09:52:32.863Z,40.91
2018-07-13T09:53:32.829Z,40.97
2018-07-13T09:54:32.812Z,41.02
2018-07-13T09:55:32.813Z,41.43
2018-07-13T09:56:32.841Z,41.77
2018-07-13T09:57:32.858Z,41.82
2018-07-13T09:58:32.856Z,41.68
2018-07-13T09:59:33.116Z,41.40
2018-07-13T10:00:32.894Z,41.14
2018-07-13T10:01:32.899Z,41.25
2018-07-13T10:02:32.933Z,41.18
2018-07-13T10:03:32.930Z,41.03
2018-07-13T10:04:32.946Z,40.84
2018-07-13T10:05:32.978Z,41.03
2018-07-13T10:06:32.974Z,41.07
2018-07-13T10:07:33.169Z,40.63
2018-07-13T10:08:33.016Z,40.02
2018-07-13T10:09:33.017Z,40.12
2018-07-13T10:10:33.045Z,40.65
2018-07-13T10:11:33.048Z,40.87
2018-07-13T10:12:33.064Z,41.03
2018-07-13T10:13:33.142Z,41.14
2018-07-13T10:14:33.098Z,41.47
2018-07-13T10:15:33.114Z,41.47
2018-07-13T10:16:33.128Z,41.47
2018-07-13T10:17:33.140Z,41.41
2018-07-13T10:18:33.153Z,41.36
2018-07-13T10:19:33.169Z,41.25
2018-07-13T10:20:33.187Z,41.14
2018-07-13T10:21:33.221Z,41.03
2018-07-13T10:22:33.218Z,41.19
2018-07-13T10:23:33.232Z,41.06
2018-07-13T10:24:33.246Z,41.26
2018-07-13T10:25:33.262Z,41.63
2018-07-13T10:26:33.280Z,41.50
2018-07-13T10:27:33.295Z,41.68
2018-07-13T10:28:33.314Z,41.91
2018-07-13T10:29:33.327Z,41.85
2018-07-13T10:30:33.344Z,42.21
2018-07-13T10:31:33.360Z,42.66
2018-07-13T10:32:33.377Z,42.69
2018-07-13T10:33:33.391Z,42.70
2018-07-13T10:34:33.410Z,42.74
2018-07-13T10:35:33.509Z,42.88
2018-07-13T10:36:33.446Z,42.92
2018-07-13T10:37:33.457Z,43.10
2018-07-13T10:38:33.476Z,43.07
2018-07-13T10:39:33.497Z,42.95
2018-07-13T10:40:33.508Z,42.94
2018-07-13T10:41:33.524Z,42.97
2018-07-13T10:42:33.544Z,42.45
2018-07-13T10:43:33.610Z,42.54
2018-07-13T10:44:33.583Z,42.57
2018-07-13T10:45:33.595Z,42.47
2018-07-13T10:46:33.611Z,42.41
2018-07-13T10:47:33.672Z,42.25
2018-07-13T10:48:33.647Z,42.31
2018-07-13T10:49:33.674Z,42.10
2018-07-13T10:50:33.730Z,42.31
2018-07-13T10:51:33.725Z,42.65
2018-07-13T10:52:33.711Z,43.04
2018-07-13T10:53:33.729Z,43.19
2018-07-13T10:54:33.749Z,42.47
2018-07-13T10:55:33.767Z,42.67
2018-07-13T10:56:33.781Z,43.10
2018-07-13T10:57:33.800Z,43.86
2018-07-13T10:58:33.871Z,44.01
2018-07-13T10:59:33.831Z,42.89
2018-07-13T11:00:33.852Z,41.98
2018-07-13T11:01:33.867Z,41.15
2018-07-13T11:02:33.884Z,40.40
2018-07-13T11:03:33.900Z,40.58
2018-07-13T11:04:33.917Z,41.29
2018-07-13T11:05:33.934Z,40.73
2018-07-13T11:06:33.958Z,39.78
2018-07-13T11:07:33.964Z,39.06
2018-07-13T11:08:33.983Z,38.19
2018-07-13T11:09:34.008Z,36.98
2018-07-13T11:10:34.024Z,36.51
2018-07-13T11:11:34.026Z,35.92
2018-07-13T11:12:34.038Z,36.68
2018-07-13T11:13:34.057Z,37.72
2018-07-13T11:14:34.065Z,38.27
2018-07-13T11:15:34.078Z,38.45
2018-07-13T11:16:34.091Z,38.46
2018-07-13T11:17:34.104Z,39.02
2018-07-13T11:18:34.128Z,39.87
2018-07-13T11:19:34.131Z,40.46
2018-07-13T11:20:34.147Z,40.92
2018-07-13T11:21:34.162Z,41.28
2018-07-13T11:22:34.183Z,41.77
2018-07-13T11:23:34.195Z,41.85
2018-07-13T11:24:34.203Z,40.59
2018-07-13T11:25:34.218Z,39.53
2018-07-13T11:26:34.232Z,39.37
2018-07-13T11:27:34.253Z,39.21
2018-07-13T11:28:34.261Z,38.19
2018-07-13T11:29:34.292Z,37.44
2018-07-13T11:30:34.296Z,36.68
2018-07-13T11:31:34.303Z,36.09
2018-07-13T11:32:34.357Z,36.30
2018-07-13T11:33:34.332Z,36.68
2018-07-13T11:34:34.344Z,37.47
2018-07-13T11:35:34.364Z,38.43
2018-07-13T11:36:34.396Z,39.24
2018-07-13T11:37:34.401Z,40.00
2018-07-13T11:38:34.400Z,40.21
2018-07-13T11:39:34.410Z,40.06
2018-07-13T11:40:34.424Z,39.77
2018-07-13T11:41:34.442Z,39.48
2018-07-13T11:42:34.456Z,38.67
2018-07-13T11:43:34.465Z,37.94
2018-07-13T11:44:34.479Z,38.23
2018-07-13T11:45:34.539Z,38.76
2018-07-13T11:46:34.506Z,39.18
2018-07-13T11:47:34.519Z,38.92
2018-07-13T11:48:34.546Z,38.82
2018-07-13T11:49:34.548Z,38.86
2018-07-13T11:50:34.774Z,39.11
2018-07-13T11:51:34.578Z,38.76
2018-07-13T11:52:34.595Z,38.45
2018-07-13T11:53:34.603Z,38.38
2018-07-13T11:54:34.734Z,38.77
2018-07-13T11:55:34.630Z,39.00
2018-07-13T11:56:34.645Z,38.19
2018-07-13T11:57:34.662Z,37.68
2018-07-13T11:58:34.677Z,37.44
2018-07-13T11:59:34.712Z,37.75
2018-07-13T12:00:34.720Z,38.11
2018-07-13T12:01:34.715Z,37.65
2018-07-13T12:02:34.727Z,37.20
2018-07-13T12:03:34.738Z,36.84
2018-07-13T12:04:34.754Z,36.47
2018-07-13T12:05:34.793Z,36.33
2018-07-13T12:06:34.788Z,36.30
2018-07-13T12:07:34.925Z,36.24
2018-07-13T12:08:34.870Z,36.28
2018-07-13T12:09:34.872Z,35.95
2018-07-13T12:10:34.882Z,36.47
2018-07-13T12:11:34.891Z,37.39
2018-07-13T12:12:34.904Z,38.27
2018-07-13T12:13:34.904Z,39.02
2018-07-13T12:14:34.879Z,39.22
2018-07-13T12:15:34.895Z,39.55
2018-07-13T12:16:34.968Z,40.06
2018-07-13T12:17:35.005Z,40.62
2018-07-13T12:18:34.973Z,41.16
2018-07-13T12:19:35.016Z,41.44
2018-07-13T12:20:34.990Z,41.45
2018-07-13T12:21:34.972Z,41.78
2018-07-13T12:22:36.901Z,41.26
2018-07-13T12:23:34.991Z,40.35
2018-07-13T12:24:35.028Z,39.80
2018-07-13T12:25:35.030Z,39.31
2018-07-13T12:26:35.034Z,39.31
2018-07-13T12:27:35.043Z,39.63
2018-07-13T12:28:35.908Z,39.87
2018-07-13T12:29:35.075Z,40.04
2018-07-13T12:30:35.089Z,40.61
2018-07-13T12:31:35.101Z,41.03
2018-07-13T12:32:35.198Z,41.33
2018-07-13T12:33:35.131Z,41.44
2018-07-13T12:34:35.146Z,41.63
2018-07-13T12:35:35.161Z,41.91
2018-07-13T12:36:35.168Z,42.10
2018-07-13T12:37:35.186Z,42.38
2018-07-13T12:38:35.201Z,42.50
2018-07-13T12:39:35.223Z,42.57
2018-07-13T12:40:35.230Z,42.41
2018-07-13T12:41:38.122Z,42.44
2018-07-13T12:42:35.277Z,42.45
2018-07-13T12:43:35.628Z,42.51
2018-07-13T12:44:35.300Z,42.76
2018-07-13T12:45:35.310Z,42.74
2018-07-13T12:46:35.329Z,42.51
2018-07-13T12:47:35.343Z,42.24
2018-07-13T12:48:35.358Z,42.48
2018-07-13T12:49:35.376Z,42.58
2018-07-13T12:50:36.265Z,42.89
2018-07-13T12:51:35.406Z,43.20
2018-07-13T12:52:35.425Z,43.41